DAL249 OMDB-KLAX
Flight info
| Callsign | DAL249 |
|---|---|
| Flight time | N/A |
| Altitude | 33000 |
| Route | DAVMO M318 BONEM/N0491F350 M318 RIKOP DCT 3756N05855E/N0495F340 DCT PODOK/N0491F350 B359 ADOBI/K0904F350 N167 INKUM/K0907F340 L165 GEMBO/K0900F360 L165 EKSOZ/K0898F350 L165 OSGAN/K0900F360 L165 TINRI/K0898F350 L165 BAPLI/K0907F370 L165 BELEG/K0907F360 L165 MARUL/K0920F380 L165 ABERI/N0497F380 DCT 89N140W DCT DEKMO/N0495F390 DCT 85N140W/N0494F380 80N137W/N0496F390 75N135W 70N135W DCT YXY/N0496F410 J536 SSR DCT BKA DCT KATCH DCT KANUA B453 BOXER DCT ENI DCT AVE DCT MUPTT IRNMN2 |
| Aircraft | A359/H-SDE2E3GHIJ3J4J5LM1ORWXY/LB1D1 |
Departure
| Time | 2026-04-21 08:47 |
|---|---|
| Airport | Dubai International Airport (OMDB) |
Arrival
| Time | N/A |
|---|---|
| Airport | Los Angeles International Airport (KLAX) |
| Time | Latitude | Longitude | Altitude | Speed | Heading |
|---|---|---|---|---|---|
| 2026-04-21 08:47 | 25.29874 | 55.29832 | 1823 ft | 231 kts | 338° |
| 2026-04-21 08:47 | 25.31438 | 55.29474 | 2406 ft | 231 kts | 359° |
| 2026-04-21 08:47 | 25.33047 | 55.29487 | 2896 ft | 231 kts | 2° |
| 2026-04-21 08:47 | 25.34669 | 55.29549 | 3370 ft | 235 kts | 3° |
| 2026-04-21 08:48 | 25.36321 | 55.29610 | 3849 ft | 238 kts | 2° |
| 2026-04-21 08:48 | 25.37999 | 55.29661 | 4212 ft | 244 kts | 2° |
| 2026-04-21 08:48 | 25.39705 | 55.29803 | 4578 ft | 248 kts | 13° |
| 2026-04-21 08:48 | 25.41377 | 55.30396 | 4805 ft | 258 kts | 23° |
| 2026-04-21 08:49 | 25.43079 | 55.31186 | 5031 ft | 270 kts | 24° |
| 2026-04-21 08:49 | 25.44824 | 55.32016 | 5396 ft | 275 kts | 25° |
| 2026-04-21 08:49 | 25.48406 | 55.33707 | 6215 ft | 284 kts | 24° |
| 2026-04-21 08:49 | 25.52099 | 55.35428 | 7070 ft | 290 kts | 22° |
| 2026-04-21 08:50 | 25.55868 | 55.37181 | 8003 ft | 296 kts | 22° |
| 2026-04-21 08:50 | 25.59514 | 55.39394 | 8824 ft | 303 kts | 33° |
| 2026-04-21 08:50 | 25.62997 | 55.42122 | 9655 ft | 309 kts | 34° |
| 2026-04-21 08:50 | 25.66517 | 55.44917 | 10167 ft | 325 kts | 37° |
| 2026-04-21 08:51 | 25.70000 | 55.48420 | 10469 ft | 349 kts | 42° |
| 2026-04-21 08:51 | 25.73635 | 55.52251 | 10752 ft | 371 kts | 42° |
| 2026-04-21 08:51 | 25.77486 | 55.56300 | 11049 ft | 391 kts | 42° |
| 2026-04-21 08:51 | 25.81530 | 55.60549 | 11336 ft | 408 kts | 42° |
| 2026-04-21 08:52 | 25.85734 | 55.64859 | 11843 ft | 416 kts | 37° |
| 2026-04-21 08:52 | 25.90490 | 55.68555 | 12528 ft | 418 kts | 31° |
| 2026-04-21 08:52 | 25.95449 | 55.71962 | 13210 ft | 421 kts | 30° |
| 2026-04-21 08:52 | 26.00465 | 55.75409 | 13846 ft | 425 kts | 30° |
| 2026-04-21 08:53 | 26.05614 | 55.78646 | 14431 ft | 425 kts | 18° |
| 2026-04-21 08:53 | 26.11307 | 55.79561 | 15035 ft | 420 kts | 357° |
| 2026-04-21 08:53 | 26.17166 | 55.79257 | 15613 ft | 422 kts | 354° |
| 2026-04-21 08:53 | 26.23088 | 55.79689 | 16200 ft | 430 kts | 4° |
| 2026-04-21 08:54 | 26.29041 | 55.80772 | 16770 ft | 435 kts | 7° |
| 2026-04-21 08:54 | 26.35017 | 55.82052 | 17333 ft | 439 kts | 8° |
| 2026-04-21 08:54 | 26.41046 | 55.83353 | 17897 ft | 443 kts | 8° |
| 2026-04-21 08:54 | 26.47176 | 55.84649 | 18242 ft | 450 kts | 7° |
| 2026-04-21 08:55 | 26.53361 | 55.85945 | 18703 ft | 453 kts | 7° |
| 2026-04-21 08:55 | 26.59578 | 55.87247 | 19159 ft | 457 kts | 7° |
| 2026-04-21 08:55 | 26.65771 | 55.88546 | 19598 ft | 460 kts | 7° |
| 2026-04-21 08:55 | 26.72095 | 55.89875 | 20048 ft | 463 kts | 7° |
| 2026-04-21 08:56 | 26.78467 | 55.91187 | 20478 ft | 466 kts | 5° |
| 2026-04-21 08:56 | 26.84933 | 55.92024 | 20888 ft | 467 kts | 2° |
| 2026-04-21 08:56 | 26.91435 | 55.92690 | 21306 ft | 471 kts | 2° |
| 2026-04-21 08:56 | 26.97980 | 55.93424 | 21698 ft | 475 kts | 2° |
| 2026-04-21 08:57 | 27.04582 | 55.94222 | 22129 ft | 478 kts | 2° |
| 2026-04-21 08:57 | 27.11213 | 55.95042 | 22529 ft | 481 kts | 2° |
| 2026-04-21 08:57 | 27.17894 | 55.95869 | 22934 ft | 484 kts | 2° |
| 2026-04-21 08:57 | 27.24623 | 55.96701 | 23252 ft | 489 kts | 3° |
| 2026-04-21 08:58 | 27.31309 | 55.97528 | 23618 ft | 491 kts | 3° |
| 2026-04-21 08:58 | 27.38114 | 55.98371 | 23968 ft | 493 kts | 3° |
| 2026-04-21 08:58 | 27.44964 | 55.99219 | 24317 ft | 495 kts | 3° |
| 2026-04-21 08:58 | 27.51820 | 56.00069 | 24714 ft | 497 kts | 3° |
| 2026-04-21 08:59 | 27.58711 | 56.00924 | 25068 ft | 499 kts | 2° |
| 2026-04-21 08:59 | 27.65627 | 56.01784 | 25450 ft | 500 kts | 2° |
| 2026-04-21 08:59 | 27.72568 | 56.02648 | 25854 ft | 502 kts | 2° |
| 2026-04-21 08:59 | 27.79516 | 56.03515 | 26220 ft | 502 kts | 2° |
| 2026-04-21 09:00 | 27.86501 | 56.04383 | 26530 ft | 506 kts | 2° |
| 2026-04-21 09:00 | 27.93404 | 56.05247 | 26877 ft | 508 kts | 2° |
| 2026-04-21 09:00 | 27.96878 | 56.05682 | 27071 ft | 509 kts | 2° |
| 2026-04-21 09:00 | 28.00403 | 56.06126 | 27190 ft | 511 kts | 1° |
| 2026-04-21 09:01 | 28.03942 | 56.06568 | 27363 ft | 512 kts | 1° |
| 2026-04-21 09:01 | 28.07500 | 56.07013 | 27524 ft | 514 kts | 1° |
| 2026-04-21 09:01 | 28.11067 | 56.07458 | 27589 ft | 516 kts | 1° |
| 2026-04-21 09:01 | 28.14632 | 56.07906 | 27873 ft | 515 kts | 1° |
| 2026-04-21 09:02 | 28.18203 | 56.08359 | 28073 ft | 516 kts | 1° |
| 2026-04-21 09:02 | 28.21776 | 56.08845 | 28197 ft | 518 kts | 2° |
| 2026-04-21 09:02 | 28.25360 | 56.09357 | 28325 ft | 520 kts | 2° |
| 2026-04-21 09:03 | 28.32529 | 56.10400 | 28586 ft | 523 kts | 2° |
| 2026-04-21 09:03 | 28.36139 | 56.10923 | 28761 ft | 523 kts | 2° |
| 2026-04-21 09:03 | 28.39756 | 56.11444 | 28952 ft | 523 kts | 2° |
| 2026-04-21 09:03 | 28.43365 | 56.11962 | 29172 ft | 522 kts | 2° |
| 2026-04-21 09:04 | 28.46976 | 56.12479 | 29417 ft | 521 kts | 2° |
| 2026-04-21 09:04 | 28.50578 | 56.12993 | 29615 ft | 522 kts | 2° |
| 2026-04-21 09:04 | 28.54185 | 56.13506 | 29766 ft | 523 kts | 2° |
| 2026-04-21 09:04 | 28.57793 | 56.14020 | 29986 ft | 522 kts | 2° |
| 2026-04-21 09:05 | 28.61394 | 56.14535 | 30207 ft | 522 kts | 2° |
| 2026-04-21 09:05 | 28.64999 | 56.15051 | 30401 ft | 521 kts | 2° |
| 2026-04-21 09:05 | 28.68594 | 56.15566 | 30643 ft | 519 kts | 2° |
| 2026-04-21 09:05 | 28.72176 | 56.16080 | 30860 ft | 518 kts | 2° |
| 2026-04-21 09:06 | 28.75721 | 56.16588 | 30991 ft | 520 kts | 1° |
| 2026-04-21 09:06 | 28.79327 | 56.17103 | 31096 ft | 522 kts | 1° |
| 2026-04-21 09:06 | 28.82936 | 56.17621 | 31321 ft | 520 kts | 1° |
| 2026-04-21 09:06 | 28.86532 | 56.18136 | 31581 ft | 518 kts | 1° |
| 2026-04-21 09:07 | 28.90058 | 56.18641 | 31799 ft | 517 kts | 1° |
| 2026-04-21 09:07 | 28.93643 | 56.19152 | 31983 ft | 516 kts | 1° |
| 2026-04-21 09:07 | 28.97210 | 56.19661 | 32190 ft | 515 kts | 1° |
| 2026-04-21 09:07 | 29.00766 | 56.20170 | 32397 ft | 515 kts | 1° |
| 2026-04-21 09:08 | 29.04328 | 56.20679 | 32529 ft | 515 kts | 1° |
| 2026-04-21 09:08 | 29.07890 | 56.21189 | 32710 ft | 515 kts | 1° |
| 2026-04-21 09:08 | 29.11391 | 56.21692 | 32937 ft | 513 kts | 1° |
| 2026-04-21 09:08 | 29.14927 | 56.22200 | 33059 ft | 508 kts | 1° |
| 2026-04-21 09:09 | 29.21828 | 56.23203 | 33085 ft | 493 kts | 1° |
| 2026-04-21 09:09 | 29.28644 | 56.24179 | 33084 ft | 494 kts | 1° |
| 2026-04-21 09:10 | 29.35470 | 56.25155 | 33104 ft | 495 kts | 1° |
| 2026-04-21 09:10 | 29.42318 | 56.26141 | 33119 ft | 496 kts | 1° |
| 2026-04-21 09:11 | 29.49146 | 56.27127 | 33154 ft | 497 kts | 1° |
| 2026-04-21 09:11 | 29.56026 | 56.28123 | 33135 ft | 499 kts | 1° |
| 2026-04-21 09:12 | 29.61773 | 56.28955 | 33148 ft | 501 kts | 1° |
| 2026-04-21 09:12 | 29.69834 | 56.30124 | 33151 ft | 502 kts | 1° |
| 2026-04-21 09:13 | 29.76382 | 56.31076 | 33142 ft | 503 kts | 1° |
| 2026-04-21 09:13 | 29.90350 | 56.33109 | 33112 ft | 506 kts | 1° |
| 2026-04-21 09:14 | 30.04332 | 56.35151 | 33084 ft | 506 kts | 1° |
| 2026-04-21 09:14 | 30.18359 | 56.37205 | 33065 ft | 508 kts | 1° |
| 2026-04-21 09:15 | 30.32349 | 56.39243 | 33042 ft | 510 kts | 1° |
| 2026-04-21 09:15 | 30.46512 | 56.41291 | 33035 ft | 512 kts | 1° |
| 2026-04-21 09:16 | 30.60702 | 56.43360 | 33033 ft | 515 kts | 1° |
| 2026-04-21 09:16 | 30.74874 | 56.45432 | 33188 ft | 516 kts | 1° |
| 2026-04-21 09:17 | 30.81992 | 56.46477 | 33659 ft | 513 kts | 1° |
| 2026-04-21 09:17 | 30.89083 | 56.47519 | 34006 ft | 513 kts | 0° |
| 2026-04-21 09:17 | 31.03376 | 56.49617 | 34013 ft | 519 kts | 1° |
| 2026-04-21 09:18 | 31.17590 | 56.51688 | 34015 ft | 518 kts | 1° |
| 2026-04-21 09:18 | 31.24751 | 56.52737 | 34567 ft | 511 kts | 1° |
| 2026-04-21 09:18 | 31.31783 | 56.53765 | 34933 ft | 507 kts | 0° |
| 2026-04-21 09:19 | 31.45946 | 56.55837 | 34970 ft | 514 kts | 0° |
| 2026-04-21 09:19 | 31.60140 | 56.57936 | 34943 ft | 518 kts | 360° |
| 2026-04-21 09:20 | 31.74373 | 56.60037 | 34927 ft | 515 kts | 360° |
| 2026-04-21 09:20 | 31.88608 | 56.62144 | 34901 ft | 515 kts | 359° |
| 2026-04-21 09:21 | 32.02859 | 56.64265 | 34881 ft | 520 kts | 360° |
| 2026-04-21 09:21 | 32.17243 | 56.66406 | 34874 ft | 521 kts | 360° |
| 2026-04-21 09:22 | 32.31667 | 56.68563 | 34875 ft | 522 kts | 360° |
| 2026-04-21 09:22 | 32.46070 | 56.70726 | 34880 ft | 523 kts | 360° |
| 2026-04-21 09:23 | 32.60536 | 56.72902 | 34872 ft | 528 kts | 0° |
| 2026-04-21 09:23 | 32.75134 | 56.75111 | 34875 ft | 529 kts | 0° |
| 2026-04-21 09:24 | 32.89762 | 56.77330 | 34866 ft | 529 kts | 0° |
| 2026-04-21 09:24 | 33.04372 | 56.79554 | 34852 ft | 532 kts | 0° |
| 2026-04-21 09:25 | 33.19100 | 56.81799 | 34836 ft | 534 kts | 0° |
| 2026-04-21 09:25 | 33.33834 | 56.84059 | 34834 ft | 534 kts | 0° |
| 2026-04-21 09:26 | 33.48576 | 56.86314 | 34856 ft | 533 kts | 0° |
| 2026-04-21 09:26 | 33.63209 | 56.88564 | 34868 ft | 533 kts | 0° |
| 2026-04-21 09:27 | 33.77972 | 56.91984 | 34840 ft | 542 kts | 6° |
| 2026-04-21 09:27 | 33.92718 | 56.95923 | 34846 ft | 544 kts | 6° |
| 2026-04-21 09:28 | 34.07529 | 56.99869 | 34840 ft | 545 kts | 6° |
| 2026-04-21 09:28 | 34.22345 | 57.03825 | 34824 ft | 545 kts | 6° |
| 2026-04-21 09:29 | 34.37069 | 57.07771 | 34817 ft | 547 kts | 6° |
| 2026-04-21 09:29 | 34.52006 | 57.11770 | 34806 ft | 549 kts | 6° |
| 2026-04-21 09:30 | 34.66853 | 57.15762 | 34804 ft | 550 kts | 6° |
| 2026-04-21 09:30 | 34.81813 | 57.19802 | 34812 ft | 551 kts | 6° |
| 2026-04-21 09:31 | 34.96848 | 57.23882 | 34800 ft | 552 kts | 6° |
| 2026-04-21 09:31 | 35.11844 | 57.27970 | 34802 ft | 552 kts | 6° |
| 2026-04-21 09:32 | 35.26855 | 57.32076 | 34839 ft | 552 kts | 6° |
| 2026-04-21 09:32 | 35.41725 | 57.36162 | 34810 ft | 550 kts | 6° |
| 2026-04-21 09:33 | 35.56677 | 57.40285 | 34820 ft | 549 kts | 6° |
| 2026-04-21 09:33 | 35.71528 | 57.44396 | 34820 ft | 549 kts | 6° |
| 2026-04-21 09:34 | 35.86424 | 57.48536 | 34815 ft | 548 kts | 6° |
| 2026-04-21 09:34 | 36.01293 | 57.52690 | 34822 ft | 546 kts | 7° |
| 2026-04-21 09:35 | 36.16097 | 57.56894 | 34820 ft | 548 kts | 11° |
| 2026-04-21 09:35 | 36.30512 | 57.63014 | 34824 ft | 551 kts | 15° |
| 2026-04-21 09:36 | 36.44955 | 57.69455 | 34822 ft | 551 kts | 15° |
| 2026-04-21 09:36 | 36.59422 | 57.75896 | 34832 ft | 552 kts | 15° |
| 2026-04-21 09:37 | 36.73884 | 57.82348 | 34846 ft | 550 kts | 15° |
| 2026-04-21 09:37 | 36.88306 | 57.88811 | 34854 ft | 550 kts | 15° |
| 2026-04-21 09:38 | 37.02590 | 57.95235 | 34849 ft | 547 kts | 15° |
| 2026-04-21 09:38 | 37.16948 | 58.01712 | 34865 ft | 547 kts | 15° |
| 2026-04-21 09:39 | 37.31279 | 58.08154 | 34853 ft | 547 kts | 15° |
| 2026-04-21 09:39 | 37.45598 | 58.14621 | 34864 ft | 544 kts | 15° |
| 2026-04-21 09:40 | 37.59740 | 58.21078 | 34854 ft | 545 kts | 19° |
| 2026-04-21 09:40 | 37.66237 | 58.26056 | 34874 ft | 549 kts | 40° |
| 2026-04-21 09:40 | 37.70968 | 58.33566 | 34869 ft | 548 kts | 62° |
| 2026-04-21 09:41 | 37.77799 | 58.50883 | 34868 ft | 549 kts | 66° |
| 2026-04-21 09:41 | 37.84422 | 58.68338 | 34868 ft | 550 kts | 65° |
| 2026-04-21 09:42 | 37.92141 | 58.84819 | 34862 ft | 550 kts | 43° |
| 2026-04-21 09:42 | 37.98377 | 58.90255 | 34862 ft | 541 kts | 19° |
| 2026-04-21 09:42 | 38.05567 | 58.92372 | 34855 ft | 527 kts | 356° |
| 2026-04-21 09:43 | 38.12692 | 58.91124 | 34866 ft | 508 kts | 335° |
| 2026-04-21 09:43 | 38.18791 | 58.87022 | 34867 ft | 490 kts | 315° |
| 2026-04-21 09:43 | 38.24583 | 58.82288 | 34865 ft | 502 kts | 329° |
| 2026-04-21 09:43 | 38.31259 | 58.79321 | 34863 ft | 511 kts | 339° |
| 2026-04-21 09:44 | 38.45017 | 58.74785 | 34866 ft | 514 kts | 341° |
| 2026-04-21 09:44 | 38.58914 | 58.70269 | 34875 ft | 514 kts | 341° |
| 2026-04-21 09:45 | 38.72702 | 58.65800 | 34870 ft | 518 kts | 345° |
| 2026-04-21 09:45 | 38.79956 | 58.65488 | 34872 ft | 528 kts | 5° |
| 2026-04-21 09:45 | 38.87143 | 58.67745 | 34872 ft | 533 kts | 14° |
| 2026-04-21 09:46 | 39.01304 | 58.73530 | 34882 ft | 534 kts | 15° |
| 2026-04-21 09:46 | 39.15512 | 58.79229 | 34886 ft | 534 kts | 14° |
| 2026-04-21 09:47 | 39.29746 | 58.84730 | 34879 ft | 534 kts | 14° |
| 2026-04-21 09:47 | 39.43887 | 58.90265 | 34886 ft | 534 kts | 15° |
| 2026-04-21 09:48 | 39.58109 | 58.95861 | 34883 ft | 534 kts | 15° |
| 2026-04-21 09:48 | 39.72330 | 59.01480 | 34886 ft | 534 kts | 15° |
| 2026-04-21 09:49 | 39.86574 | 59.07132 | 34894 ft | 534 kts | 15° |
| 2026-04-21 09:49 | 40.00743 | 59.12754 | 34884 ft | 535 kts | 15° |
| 2026-04-21 09:50 | 40.10294 | 59.16524 | 34898 ft | 535 kts | 15° |
| 2026-04-21 09:50 | 40.29258 | 59.24066 | 34887 ft | 537 kts | 15° |
| 2026-04-21 09:51 | 40.43586 | 59.29803 | 34890 ft | 539 kts | 15° |
| 2026-04-21 09:51 | 40.58008 | 59.35624 | 34877 ft | 544 kts | 15° |
| 2026-04-21 09:52 | 40.72522 | 59.41508 | 34877 ft | 545 kts | 15° |
| 2026-04-21 09:52 | 40.86938 | 59.47378 | 34879 ft | 546 kts | 15° |
| 2026-04-21 09:53 | 41.01543 | 59.53355 | 34875 ft | 550 kts | 15° |
| 2026-04-21 09:53 | 41.16174 | 59.59299 | 34894 ft | 550 kts | 15° |
| 2026-04-21 09:54 | 41.30855 | 59.65296 | 34873 ft | 552 kts | 15° |
| 2026-04-21 09:54 | 41.45708 | 59.70453 | 34871 ft | 551 kts | 9° |
| 2026-04-21 09:55 | 41.60708 | 59.74801 | 34868 ft | 551 kts | 10° |
| 2026-04-21 09:55 | 41.75638 | 59.79493 | 34856 ft | 554 kts | 15° |
| 2026-04-21 09:56 | 41.90204 | 59.85937 | 34854 ft | 553 kts | 16° |
| 2026-04-21 09:56 | 42.04821 | 59.92644 | 34864 ft | 555 kts | 16° |
| 2026-04-21 09:57 | 42.19340 | 59.99418 | 34843 ft | 553 kts | 16° |
| 2026-04-21 09:57 | 42.33902 | 60.06277 | 34842 ft | 551 kts | 16° |
| 2026-04-21 09:58 | 42.48375 | 60.13111 | 34835 ft | 550 kts | 16° |
| 2026-04-21 09:58 | 42.62799 | 60.19955 | 34831 ft | 548 kts | 16° |
| 2026-04-21 09:59 | 42.77148 | 60.26797 | 34830 ft | 548 kts | 16° |
| 2026-04-21 09:59 | 42.91539 | 60.33693 | 34828 ft | 548 kts | 16° |
| 2026-04-21 10:00 | 43.05957 | 60.40635 | 34828 ft | 549 kts | 16° |
| 2026-04-21 10:00 | 43.17922 | 60.46424 | 34829 ft | 549 kts | 16° |
| 2026-04-21 10:01 | 43.34194 | 60.54335 | 34825 ft | 549 kts | 16° |
| 2026-04-21 10:01 | 43.46194 | 60.60194 | 34831 ft | 549 kts | 16° |
| 2026-04-21 10:02 | 43.67857 | 60.70842 | 34834 ft | 550 kts | 16° |
| 2026-04-21 10:03 | 43.82223 | 60.77947 | 34815 ft | 550 kts | 16° |
| 2026-04-21 10:03 | 43.96652 | 60.85121 | 34823 ft | 550 kts | 16° |
| 2026-04-21 10:04 | 44.11067 | 60.92326 | 34826 ft | 550 kts | 16° |
| 2026-04-21 10:04 | 44.25406 | 60.99526 | 34820 ft | 550 kts | 15° |
| 2026-04-21 10:05 | 44.39750 | 61.07121 | 34824 ft | 553 kts | 22° |
| 2026-04-21 10:05 | 44.53482 | 61.16842 | 34804 ft | 552 kts | 24° |
| 2026-04-21 10:06 | 44.67122 | 61.26756 | 34798 ft | 551 kts | 24° |
| 2026-04-21 10:06 | 44.80678 | 61.36617 | 34789 ft | 551 kts | 24° |
| 2026-04-21 10:07 | 44.94309 | 61.46584 | 34789 ft | 550 kts | 24° |
| 2026-04-21 10:07 | 45.07895 | 61.56548 | 34783 ft | 549 kts | 24° |
| 2026-04-21 10:08 | 45.21491 | 61.66576 | 34779 ft | 549 kts | 24° |
| 2026-04-21 10:08 | 45.34974 | 61.76579 | 34782 ft | 550 kts | 24° |
| 2026-04-21 10:09 | 45.48519 | 61.86682 | 34779 ft | 549 kts | 24° |
| 2026-04-21 10:09 | 45.62031 | 61.96815 | 34783 ft | 547 kts | 23° |
| 2026-04-21 10:10 | 45.75470 | 62.06950 | 34783 ft | 545 kts | 23° |
| 2026-04-21 10:10 | 45.89463 | 62.13970 | 34782 ft | 527 kts | 2° |
| 2026-04-21 10:11 | 46.03825 | 62.16743 | 34797 ft | 523 kts | 0° |
| 2026-04-21 10:11 | 46.18298 | 62.19458 | 34788 ft | 524 kts | 1° |
| 2026-04-21 10:12 | 46.32769 | 62.22253 | 34793 ft | 523 kts | 1° |
| 2026-04-21 10:12 | 46.47193 | 62.25040 | 34796 ft | 522 kts | 1° |
| 2026-04-21 10:13 | 46.61521 | 62.27785 | 34795 ft | 522 kts | 1° |
| 2026-04-21 10:13 | 46.75893 | 62.30569 | 34810 ft | 520 kts | 1° |
| 2026-04-21 10:14 | 46.90266 | 62.33366 | 34797 ft | 519 kts | 1° |
| 2026-04-21 10:14 | 47.04600 | 62.36171 | 34801 ft | 518 kts | 1° |
| 2026-04-21 10:15 | 47.18779 | 62.38960 | 34798 ft | 517 kts | 1° |
| 2026-04-21 10:15 | 47.33056 | 62.41784 | 34802 ft | 516 kts | 2° |
| 2026-04-21 10:16 | 47.47267 | 62.44613 | 34818 ft | 513 kts | 2° |
| 2026-04-21 10:16 | 47.61350 | 62.47426 | 34801 ft | 513 kts | 2° |
| 2026-04-21 10:17 | 47.75535 | 62.50279 | 34803 ft | 512 kts | 2° |
| 2026-04-21 10:17 | 47.89680 | 62.53140 | 34801 ft | 511 kts | 2° |
| 2026-04-21 10:18 | 48.03790 | 62.56006 | 34801 ft | 512 kts | 2° |
| 2026-04-21 10:18 | 48.17829 | 62.58877 | 34802 ft | 510 kts | 2° |
| 2026-04-21 10:19 | 48.31912 | 62.61773 | 34801 ft | 510 kts | 2° |
| 2026-04-21 10:19 | 48.46005 | 62.64685 | 34798 ft | 510 kts | 2° |
| 2026-04-21 10:20 | 48.60020 | 62.67593 | 34795 ft | 512 kts | 2° |
| 2026-04-21 10:20 | 48.74192 | 62.70217 | 34809 ft | 511 kts | 1° |
| 2026-04-21 10:21 | 48.88352 | 62.72590 | 34805 ft | 512 kts | 1° |
| 2026-04-21 10:21 | 49.02378 | 62.75037 | 34805 ft | 510 kts | 1° |
| 2026-04-21 10:22 | 49.16500 | 62.77510 | 34796 ft | 511 kts | 1° |
| 2026-04-21 10:22 | 49.30634 | 62.80002 | 34795 ft | 511 kts | 1° |
| 2026-04-21 10:23 | 49.44742 | 62.82504 | 34799 ft | 509 kts | 1° |
| 2026-04-21 10:23 | 49.58850 | 62.85015 | 34795 ft | 511 kts | 1° |
| 2026-04-21 10:24 | 49.72927 | 62.87539 | 34790 ft | 511 kts | 2° |
| 2026-04-21 10:24 | 49.87015 | 62.90084 | 34793 ft | 510 kts | 2° |
| 2026-04-21 10:25 | 50.01162 | 62.92652 | 34800 ft | 510 kts | 2° |
| 2026-04-21 10:25 | 50.08200 | 62.93939 | 34965 ft | 508 kts | 1° |
| 2026-04-21 10:25 | 50.15130 | 62.95204 | 35147 ft | 504 kts | 2° |
| 2026-04-21 10:25 | 50.22103 | 62.96478 | 35250 ft | 503 kts | 2° |
| 2026-04-21 10:26 | 50.29080 | 62.97754 | 35258 ft | 504 kts | 2° |
| 2026-04-21 10:26 | 50.36064 | 62.99038 | 35154 ft | 508 kts | 2° |
| 2026-04-21 10:26 | 50.43108 | 63.00337 | 35243 ft | 507 kts | 2° |
| 2026-04-21 10:27 | 50.57130 | 63.02943 | 35336 ft | 507 kts | 1° |
| 2026-04-21 10:27 | 50.64178 | 63.04255 | 35200 ft | 511 kts | 1° |
| 2026-04-21 10:27 | 50.71228 | 63.05576 | 35293 ft | 509 kts | 2° |
| 2026-04-21 10:28 | 50.85234 | 63.08208 | 35358 ft | 510 kts | 2° |
| 2026-04-21 10:28 | 50.99301 | 63.10865 | 35466 ft | 508 kts | 2° |
| 2026-04-21 10:28 | 51.06316 | 63.12200 | 35610 ft | 506 kts | 2° |
| 2026-04-21 10:29 | 51.13338 | 63.13534 | 35493 ft | 510 kts | 2° |
| 2026-04-21 10:29 | 51.27442 | 63.16236 | 35552 ft | 510 kts | 2° |
| 2026-04-21 10:30 | 51.41565 | 63.18953 | 35489 ft | 513 kts | 2° |
| 2026-04-21 10:30 | 51.48624 | 63.20322 | 35677 ft | 509 kts | 2° |
| 2026-04-21 10:30 | 51.55576 | 63.21672 | 35660 ft | 509 kts | 2° |
| 2026-04-21 10:31 | 51.69699 | 63.24423 | 35595 ft | 513 kts | 2° |
| 2026-04-21 10:31 | 51.83872 | 63.27207 | 35670 ft | 512 kts | 2° |
| 2026-04-21 10:31 | 51.90900 | 63.28600 | 35762 ft | 499 kts | 2° |
| 2026-04-21 10:32 | 51.97759 | 63.29966 | 35765 ft | 494 kts | 1° |
| 2026-04-21 10:32 | 52.11355 | 63.32658 | 35763 ft | 495 kts | 2° |
| 2026-04-21 10:33 | 52.25046 | 63.35403 | 35761 ft | 496 kts | 2° |
| 2026-04-21 10:33 | 52.38785 | 63.38430 | 35760 ft | 496 kts | 2° |
| 2026-04-21 10:34 | 52.52490 | 63.41459 | 35758 ft | 496 kts | 2° |
| 2026-04-21 10:34 | 52.66148 | 63.44470 | 35751 ft | 499 kts | 2° |
| 2026-04-21 10:35 | 52.79912 | 63.47538 | 35756 ft | 499 kts | 2° |
| 2026-04-21 10:35 | 52.93650 | 63.50614 | 35748 ft | 500 kts | 2° |
| 2026-04-21 10:36 | 53.07469 | 63.53730 | 35750 ft | 501 kts | 2° |
| 2026-04-21 10:36 | 53.21230 | 63.57862 | 35744 ft | 509 kts | 14° |
| 2026-04-21 10:37 | 53.34587 | 63.65867 | 35748 ft | 509 kts | 16° |
| 2026-04-21 10:37 | 53.47852 | 63.74068 | 35741 ft | 511 kts | 16° |
| 2026-04-21 10:38 | 53.61201 | 63.82308 | 35737 ft | 509 kts | 16° |
| 2026-04-21 10:38 | 53.74518 | 63.90582 | 35733 ft | 509 kts | 16° |
| 2026-04-21 10:39 | 53.87833 | 63.98910 | 35730 ft | 509 kts | 17° |
| 2026-04-21 10:39 | 54.01022 | 64.07218 | 35759 ft | 507 kts | 17° |
| 2026-04-21 10:40 | 54.14294 | 64.15630 | 35727 ft | 509 kts | 17° |
| 2026-04-21 10:40 | 54.27570 | 64.24110 | 35724 ft | 508 kts | 17° |
| 2026-04-21 10:41 | 54.40267 | 64.34607 | 35730 ft | 512 kts | 26° |
| 2026-04-21 10:41 | 54.52689 | 64.46757 | 35720 ft | 513 kts | 27° |
| 2026-04-21 10:42 | 54.65095 | 64.58947 | 35727 ft | 511 kts | 27° |
| 2026-04-21 10:42 | 54.77372 | 64.71068 | 35718 ft | 511 kts | 27° |
| 2026-04-21 10:43 | 54.89700 | 64.83333 | 35725 ft | 510 kts | 27° |
| 2026-04-21 10:43 | 55.01998 | 64.95650 | 35728 ft | 510 kts | 27° |
| 2026-04-21 10:44 | 55.14332 | 65.07943 | 35730 ft | 510 kts | 27° |
| 2026-04-21 10:44 | 55.26644 | 65.20309 | 35738 ft | 509 kts | 27° |
| 2026-04-21 10:45 | 55.38922 | 65.32738 | 35744 ft | 509 kts | 27° |
| 2026-04-21 10:45 | 55.51836 | 65.41073 | 35761 ft | 490 kts | 356° |
| 2026-04-21 10:46 | 55.65454 | 65.40637 | 35765 ft | 488 kts | 352° |
| 2026-04-21 10:46 | 55.79045 | 65.39756 | 35768 ft | 488 kts | 353° |
| 2026-04-21 10:47 | 55.92555 | 65.38995 | 35782 ft | 488 kts | 353° |
| 2026-04-21 10:47 | 56.06128 | 65.38210 | 35785 ft | 488 kts | 353° |
| 2026-04-21 10:48 | 56.19721 | 65.37440 | 35799 ft | 487 kts | 353° |
| 2026-04-21 10:48 | 56.33284 | 65.36646 | 35803 ft | 487 kts | 353° |
| 2026-04-21 10:49 | 56.46833 | 65.35853 | 35815 ft | 487 kts | 353° |
| 2026-04-21 10:49 | 56.60410 | 65.35059 | 35825 ft | 487 kts | 353° |
| 2026-04-21 10:50 | 56.71676 | 65.34380 | 35827 ft | 488 kts | 353° |
| 2026-04-21 10:50 | 56.87464 | 65.33405 | 35829 ft | 487 kts | 353° |
| 2026-04-21 10:51 | 56.98743 | 65.32688 | 35870 ft | 488 kts | 353° |
| 2026-04-21 10:51 | 57.14541 | 65.31710 | 35880 ft | 489 kts | 355° |
| 2026-04-21 10:52 | 57.25950 | 65.34692 | 35884 ft | 497 kts | 7° |
| 2026-04-21 10:52 | 57.39468 | 65.39665 | 35876 ft | 497 kts | 6° |
| 2026-04-21 10:53 | 57.53034 | 65.44635 | 35864 ft | 495 kts | 6° |
| 2026-04-21 10:53 | 57.66504 | 65.49595 | 35881 ft | 495 kts | 7° |
| 2026-04-21 10:54 | 57.80047 | 65.54637 | 35924 ft | 495 kts | 7° |
| 2026-04-21 10:54 | 57.93509 | 65.59692 | 35903 ft | 492 kts | 7° |
| 2026-04-21 10:55 | 58.07001 | 65.63104 | 35917 ft | 487 kts | 0° |
| 2026-04-21 10:55 | 58.20522 | 65.65501 | 35933 ft | 487 kts | 0° |
| 2026-04-21 10:56 | 58.33947 | 65.67920 | 35939 ft | 487 kts | 1° |
| 2026-04-21 10:56 | 58.47428 | 65.70379 | 35955 ft | 485 kts | 0° |
| 2026-04-21 10:57 | 58.60877 | 65.72851 | 35957 ft | 485 kts | 0° |
| 2026-04-21 10:57 | 58.74328 | 65.75340 | 35971 ft | 485 kts | 0° |
| 2026-04-21 10:58 | 58.87698 | 65.77835 | 35990 ft | 485 kts | 0° |
| 2026-04-21 10:58 | 59.01141 | 65.80363 | 35997 ft | 483 kts | 0° |
| 2026-04-21 10:59 | 59.14428 | 65.82884 | 36015 ft | 479 kts | 0° |
| 2026-04-21 10:59 | 59.27724 | 65.85421 | 36021 ft | 479 kts | 0° |
| 2026-04-21 11:00 | 59.41018 | 65.87979 | 36041 ft | 479 kts | 0° |
| 2026-04-21 11:00 | 59.54285 | 65.90230 | 36044 ft | 477 kts | 359° |
| 2026-04-21 11:01 | 59.67383 | 65.92450 | 36058 ft | 473 kts | 359° |
| 2026-04-21 11:01 | 59.80523 | 65.93824 | 36069 ft | 469 kts | 354° |
| 2026-04-21 11:02 | 60.00073 | 65.94130 | 36083 ft | 470 kts | 355° |
| 2026-04-21 11:02 | 60.13162 | 65.94589 | 36088 ft | 470 kts | 355° |
| 2026-04-21 11:03 | 60.26271 | 65.95042 | 36107 ft | 468 kts | 355° |
| 2026-04-21 11:03 | 60.39212 | 65.95485 | 36108 ft | 467 kts | 355° |
| 2026-04-21 11:04 | 60.52215 | 65.95936 | 36111 ft | 467 kts | 355° |
| 2026-04-21 11:04 | 60.65221 | 65.96393 | 36124 ft | 467 kts | 355° |
| 2026-04-21 11:05 | 60.78227 | 65.96854 | 36127 ft | 466 kts | 355° |
| 2026-04-21 11:05 | 60.91217 | 65.97316 | 36152 ft | 466 kts | 355° |
| 2026-04-21 11:06 | 61.04051 | 65.97795 | 36142 ft | 464 kts | 355° |
| 2026-04-21 11:06 | 61.16971 | 65.98282 | 36150 ft | 464 kts | 355° |
| 2026-04-21 11:07 | 61.29866 | 65.98734 | 36162 ft | 464 kts | 355° |
| 2026-04-21 11:07 | 61.42802 | 65.99208 | 36163 ft | 464 kts | 355° |
| 2026-04-21 11:08 | 61.55660 | 65.99687 | 36172 ft | 464 kts | 355° |
| 2026-04-21 11:08 | 61.68646 | 66.00175 | 36180 ft | 463 kts | 355° |
| 2026-04-21 11:09 | 61.81472 | 66.00659 | 36189 ft | 463 kts | 355° |
| 2026-04-21 11:09 | 61.94394 | 66.01149 | 36191 ft | 463 kts | 355° |
| 2026-04-21 11:10 | 62.07297 | 66.01636 | 36200 ft | 463 kts | 356° |
| 2026-04-21 11:10 | 62.20186 | 66.02133 | 36203 ft | 463 kts | 356° |
| 2026-04-21 11:11 | 62.33006 | 66.02631 | 36206 ft | 462 kts | 356° |
| 2026-04-21 11:11 | 62.45867 | 66.03353 | 36200 ft | 465 kts | 2° |
| 2026-04-21 11:12 | 62.58646 | 66.09302 | 36202 ft | 470 kts | 8° |
| 2026-04-21 11:12 | 62.71374 | 66.16108 | 36204 ft | 470 kts | 9° |
| 2026-04-21 11:13 | 62.84011 | 66.22844 | 36204 ft | 470 kts | 9° |
| 2026-04-21 11:13 | 62.96709 | 66.29663 | 36205 ft | 470 kts | 9° |
| 2026-04-21 11:14 | 63.09423 | 66.36555 | 36202 ft | 470 kts | 9° |
| 2026-04-21 11:14 | 63.22122 | 66.43501 | 36203 ft | 470 kts | 9° |
| 2026-04-21 11:15 | 63.34819 | 66.50510 | 36223 ft | 470 kts | 10° |
| 2026-04-21 11:15 | 63.47491 | 66.57640 | 36209 ft | 468 kts | 10° |
| 2026-04-21 11:16 | 63.60065 | 66.64775 | 36218 ft | 469 kts | 10° |
| 2026-04-21 11:16 | 63.72785 | 66.69607 | 36217 ft | 460 kts | 356° |
| 2026-04-21 11:17 | 63.85615 | 66.69302 | 36219 ft | 460 kts | 355° |
| 2026-04-21 11:17 | 63.98448 | 66.68779 | 36220 ft | 460 kts | 355° |
| 2026-04-21 11:18 | 64.11158 | 66.68334 | 36217 ft | 459 kts | 356° |
| 2026-04-21 11:18 | 64.23979 | 66.67977 | 36219 ft | 459 kts | 356° |
| 2026-04-21 11:19 | 64.36667 | 66.67655 | 36210 ft | 463 kts | 356° |
| 2026-04-21 11:19 | 64.49475 | 66.67319 | 36210 ft | 459 kts | 356° |
| 2026-04-21 11:20 | 64.62306 | 66.66971 | 36210 ft | 467 kts | 356° |
| 2026-04-21 11:20 | 64.75535 | 66.66607 | 36215 ft | 482 kts | 356° |
| 2026-04-21 11:21 | 64.89004 | 66.66246 | 36211 ft | 483 kts | 356° |
| 2026-04-21 11:21 | 65.02456 | 66.65866 | 36208 ft | 483 kts | 356° |
| 2026-04-21 11:22 | 65.15849 | 66.65491 | 36205 ft | 483 kts | 356° |
| 2026-04-21 11:22 | 65.29332 | 66.65106 | 36202 ft | 483 kts | 356° |
| 2026-04-21 11:23 | 65.42739 | 66.64695 | 36528 ft | 483 kts | 357° |
| 2026-04-21 11:23 | 65.49476 | 66.64473 | 36789 ft | 483 kts | 357° |
| 2026-04-21 11:23 | 65.56213 | 66.64253 | 37024 ft | 484 kts | 357° |
| 2026-04-21 11:24 | 65.62959 | 66.64030 | 37189 ft | 484 kts | 357° |
| 2026-04-21 11:24 | 65.69677 | 66.63809 | 37190 ft | 483 kts | 357° |
| 2026-04-21 11:24 | 65.83125 | 66.63363 | 37187 ft | 483 kts | 357° |
| 2026-04-21 11:25 | 66.05818 | 66.62594 | 37178 ft | 482 kts | 357° |
| 2026-04-21 11:25 | 66.32532 | 66.61694 | 37170 ft | 482 kts | 358° |
| 2026-04-21 11:26 | 66.59345 | 66.60775 | 37155 ft | 481 kts | 358° |
| 2026-04-21 11:26 | 66.86150 | 66.62145 | 37164 ft | 481 kts | 359° |
| 2026-04-21 11:27 | 67.12977 | 66.63396 | 37150 ft | 481 kts | 359° |
| 2026-04-21 11:27 | 67.39539 | 66.64629 | 37120 ft | 480 kts | 1° |
| 2026-04-21 11:28 | 67.66277 | 66.67122 | 37095 ft | 480 kts | 0° |
| 2026-04-21 11:28 | 67.92970 | 66.69531 | 37067 ft | 479 kts | 0° |
| 2026-04-21 11:29 | 68.19651 | 66.71901 | 37040 ft | 479 kts | 0° |
| 2026-04-21 11:29 | 68.46328 | 66.74347 | 37026 ft | 479 kts | 1° |
| 2026-04-21 11:30 | 68.72807 | 66.76945 | 37025 ft | 476 kts | 1° |
| 2026-04-21 11:30 | 68.99348 | 66.79008 | 37009 ft | 477 kts | 360° |
| 2026-04-21 11:31 | 69.25996 | 66.80198 | 36995 ft | 478 kts | 360° |
| 2026-04-21 11:31 | 69.52628 | 66.81504 | 36977 ft | 479 kts | 360° |
| 2026-04-21 11:32 | 69.79233 | 66.82840 | 36958 ft | 478 kts | 360° |
| 2026-04-21 11:32 | 70.05668 | 66.84200 | 36952 ft | 478 kts | 360° |
| 2026-04-21 11:33 | 70.32319 | 66.85610 | 36947 ft | 477 kts | 360° |
| 2026-04-21 11:33 | 70.58937 | 66.87050 | 36929 ft | 477 kts | 360° |
| 2026-04-21 11:34 | 70.85422 | 66.88525 | 36901 ft | 479 kts | 360° |
| 2026-04-21 11:34 | 71.12036 | 66.90047 | 36876 ft | 477 kts | 360° |
| 2026-04-21 11:35 | 71.38559 | 66.89051 | 36864 ft | 478 kts | 356° |
| 2026-04-21 11:35 | 71.65204 | 66.86282 | 36839 ft | 477 kts | 357° |
| 2026-04-21 11:36 | 71.91750 | 66.83537 | 36810 ft | 475 kts | 357° |
| 2026-04-21 11:36 | 72.18269 | 66.80717 | 36794 ft | 479 kts | 357° |
| 2026-04-21 11:37 | 72.44724 | 66.77797 | 36774 ft | 480 kts | 357° |
| 2026-04-21 11:37 | 72.71363 | 66.74781 | 36749 ft | 480 kts | 357° |
| 2026-04-21 11:38 | 72.98123 | 66.71660 | 36724 ft | 479 kts | 357° |
| 2026-04-21 11:38 | 73.24906 | 66.68437 | 36711 ft | 482 kts | 357° |
| 2026-04-21 11:39 | 73.47199 | 66.65679 | 36697 ft | 483 kts | 357° |
| 2026-04-21 11:39 | 73.78493 | 66.61682 | 36683 ft | 483 kts | 357° |
| 2026-04-21 11:40 | 74.01091 | 66.58701 | 36680 ft | 485 kts | 357° |
| 2026-04-21 11:40 | 74.27858 | 66.55060 | 36663 ft | 484 kts | 357° |
| 2026-04-21 11:41 | 74.54797 | 66.51273 | 36666 ft | 484 kts | 357° |
| 2026-04-21 11:41 | 74.81786 | 66.47348 | 36660 ft | 485 kts | 357° |
| 2026-04-21 11:42 | 75.08882 | 66.43266 | 36655 ft | 486 kts | 357° |
| 2026-04-21 11:42 | 75.35913 | 66.39048 | 36648 ft | 487 kts | 357° |
| 2026-04-21 11:43 | 75.62861 | 66.34689 | 36650 ft | 488 kts | 357° |
| 2026-04-21 11:43 | 75.90064 | 66.34999 | 37277 ft | 485 kts | 1° |
| 2026-04-21 11:44 | 76.03533 | 66.36741 | 37832 ft | 483 kts | 1° |
| 2026-04-21 11:44 | 76.16915 | 66.38431 | 38580 ft | 474 kts | 1° |
| 2026-04-21 11:44 | 76.43635 | 66.41900 | 38590 ft | 487 kts | 1° |
| 2026-04-21 11:45 | 76.70873 | 66.45588 | 38578 ft | 489 kts | 1° |
| 2026-04-21 11:45 | 76.98101 | 66.49419 | 38549 ft | 488 kts | 1° |
| 2026-04-21 11:46 | 77.25204 | 66.53398 | 38546 ft | 489 kts | 1° |
| 2026-04-21 11:46 | 77.52488 | 66.57571 | 38551 ft | 490 kts | 1° |
| 2026-04-21 11:47 | 77.79872 | 66.61943 | 38536 ft | 494 kts | 2° |
| 2026-04-21 11:47 | 78.07300 | 66.66525 | 38539 ft | 493 kts | 2° |
| 2026-04-21 11:48 | 78.34727 | 66.71319 | 38545 ft | 494 kts | 2° |
| 2026-04-21 11:48 | 78.62015 | 66.76310 | 38542 ft | 495 kts | 2° |
| 2026-04-21 11:49 | 78.89502 | 66.81588 | 38545 ft | 493 kts | 2° |
| 2026-04-21 11:49 | 79.17060 | 66.87143 | 38530 ft | 495 kts | 2° |
| 2026-04-21 11:50 | 79.44710 | 66.93004 | 38537 ft | 498 kts | 2° |